Linden, Wisconsin
Current Conditions -  °F | °C
As of 5:15 AM on Saturday 01 Nov 2014 (Local Time) from KMRJ Reporting Station
Clear Clear  
Wind Chill: 21°   Ceiling: Unl
Heat Index: 27°   Visibility: 10mi
Dew Point: 19°   Wind: 5mph
Humidity: 74%   Direction: 350°N
Pressure: 30.45"   Gusts: NA
Location:  42.92°N, 90.27°W
Report Text: KMRJ 011015Z AUTO 35004KT 10SM CLR M03/M07 A3045 RMK AO2
Loading
Personal Weather Stations






























Interactive Weather Map
Tropical Storm Tracking
New forecast layout! Learn more

10-Day Weather Forecast

Advertisements
Track Severe Weather on mobile